sensor_id;sensor_type;location;lat;lon;timestamp;P1;durP1;ratioP1;P2;durP2;ratioP2
19741;SDS011;10028;48.822;11.854;2023-03-13T00:01:23;2.90;;;2.80;;
19741;SDS011;10028;48.822;11.854;2023-03-13T00:03:53;2.47;;;2.37;;
19741;SDS011;10028;48.822;11.854;2023-03-13T00:06:28;2.53;;;2.43;;
19741;SDS011;10028;48.822;11.854;2023-03-13T00:09:00;2.53;;;2.43;;
19741;SDS011;10028;48.822;11.854;2023-03-13T00:11:28;2.70;;;2.60;;
19741;SDS011;10028;48.822;11.854;2023-03-13T00:13:59;2.87;;;2.77;;
19741;SDS011;10028;48.822;11.854;2023-03-13T00:16:28;2.87;;;2.77;;
19741;SDS011;10028;48.822;11.854;2023-03-13T00:18:56;2.67;;;2.57;;
19741;SDS011;10028;48.822;11.854;2023-03-13T00:21:24;4.20;;;3.97;;
19741;SDS011;10028;48.822;11.854;2023-03-13T00:23:52;2.43;;;2.33;;
19741;SDS011;10028;48.822;11.854;2023-03-13T00:26:21;3.63;;;3.43;;
19741;SDS011;10028;48.822;11.854;2023-03-13T00:28:49;3.30;;;3.20;;
19741;SDS011;10028;48.822;11.854;2023-03-13T00:31:18;3.83;;;3.53;;
19741;SDS011;10028;48.822;11.854;2023-03-13T00:33:50;2.50;;;2.40;;
19741;SDS011;10028;48.822;11.854;2023-03-13T00:36:20;3.97;;;3.67;;
19741;SDS011;10028;48.822;11.854;2023-03-13T00:38:49;2.60;;;2.50;;
19741;SDS011;10028;48.822;11.854;2023-03-13T00:41:18;3.80;;;3.60;;
19741;SDS011;10028;48.822;11.854;2023-03-13T00:43:56;2.57;;;2.47;;
19741;SDS011;10028;48.822;11.854;2023-03-13T00:46:24;3.70;;;3.57;;
19741;SDS011;10028;48.822;11.854;2023-03-13T00:48:53;3.07;;;2.97;;
19741;SDS011;10028;48.822;11.854;2023-03-13T00:51:21;2.40;;;2.30;;
19741;SDS011;10028;48.822;11.854;2023-03-13T00:53:49;3.00;;;2.90;;
19741;SDS011;10028;48.822;11.854;2023-03-13T00:56:16;3.60;;;3.50;;
19741;SDS011;10028;48.822;11.854;2023-03-13T00:58:45;2.83;;;2.73;;
19741;SDS011;10028;48.822;11.854;2023-03-13T01:03:55;2.40;;;2.30;;
19741;SDS011;10028;48.822;11.854;2023-03-13T01:06:30;2.80;;;2.70;;
19741;SDS011;10028;48.822;11.854;2023-03-13T01:08:59;2.77;;;2.67;;
19741;SDS011;10028;48.822;11.854;2023-03-13T01:11:27;2.73;;;2.63;;
19741;SDS011;10028;48.822;11.854;2023-03-13T01:13:56;2.40;;;2.30;;
19741;SDS011;10028;48.822;11.854;2023-03-13T01:16:27;2.40;;;2.30;;
19741;SDS011;10028;48.822;11.854;2023-03-13T01:18:57;2.77;;;2.67;;
19741;SDS011;10028;48.822;11.854;2023-03-13T01:21:26;2.70;;;2.60;;
19741;SDS011;10028;48.822;11.854;2023-03-13T01:23:54;2.40;;;2.30;;
19741;SDS011;10028;48.822;11.854;2023-03-13T01:26:22;2.70;;;2.60;;
19741;SDS011;10028;48.822;11.854;2023-03-13T01:28:49;2.63;;;2.53;;
19741;SDS011;10028;48.822;11.854;2023-03-13T01:31:27;2.93;;;2.83;;
19741;SDS011;10028;48.822;11.854;2023-03-13T01:33:57;2.73;;;2.63;;
19741;SDS011;10028;48.822;11.854;2023-03-13T01:36:26;2.60;;;2.50;;
19741;SDS011;10028;48.822;11.854;2023-03-13T01:38:54;2.70;;;2.60;;
19741;SDS011;10028;48.822;11.854;2023-03-13T01:41:22;2.70;;;2.60;;
19741;SDS011;10028;48.822;11.854;2023-03-13T01:43:50;2.47;;;2.37;;
19741;SDS011;10028;48.822;11.854;2023-03-13T01:53:53;2.60;;;2.50;;
19741;SDS011;10028;48.822;11.854;2023-03-13T01:56:42;2.80;;;2.70;;
19741;SDS011;10028;48.822;11.854;2023-03-13T01:59:17;2.60;;;2.50;;
19741;SDS011;10028;48.822;11.854;2023-03-13T02:01:57;2.53;;;2.43;;
19741;SDS011;10028;48.822;11.854;2023-03-13T02:04:29;2.87;;;2.77;;
19741;SDS011;10028;48.822;11.854;2023-03-13T02:07:02;2.60;;;2.50;;
19741;SDS011;10028;48.822;11.854;2023-03-13T02:09:32;2.63;;;2.53;;
19741;SDS011;10028;48.822;11.854;2023-03-13T02:12:02;5.00;;;3.47;;
19741;SDS011;10028;48.822;11.854;2023-03-13T02:14:34;2.50;;;2.40;;
19741;SDS011;10028;48.822;11.854;2023-03-13T02:17:04;2.70;;;2.60;;
19741;SDS011;10028;48.822;11.854;2023-03-13T02:19:42;2.73;;;2.63;;
19741;SDS011;10028;48.822;11.854;2023-03-13T02:22:26;2.60;;;2.50;;
19741;SDS011;10028;48.822;11.854;2023-03-13T02:28:08;3.03;;;2.93;;
19741;SDS011;10028;48.822;11.854;2023-03-13T02:30:43;2.70;;;2.60;;
19741;SDS011;10028;48.822;11.854;2023-03-13T02:33:11;3.10;;;3.00;;
19741;SDS011;10028;48.822;11.854;2023-03-13T02:35:39;3.10;;;3.00;;
19741;SDS011;10028;48.822;11.854;2023-03-13T02:38:07;2.67;;;2.57;;
19741;SDS011;10028;48.822;11.854;2023-03-13T02:40:37;2.60;;;2.50;;
19741;SDS011;10028;48.822;11.854;2023-03-13T02:43:08;2.60;;;2.50;;
19741;SDS011;10028;48.822;11.854;2023-03-13T02:45:39;3.10;;;3.00;;
19741;SDS011;10028;48.822;11.854;2023-03-13T02:48:07;2.57;;;2.47;;
19741;SDS011;10028;48.822;11.854;2023-03-13T02:50:34;2.63;;;2.53;;
19741;SDS011;10028;48.822;11.854;2023-03-13T02:53:02;2.90;;;2.80;;
19741;SDS011;10028;48.822;11.854;2023-03-13T02:55:37;2.70;;;2.60;;
19741;SDS011;10028;48.822;11.854;2023-03-13T02:58:06;3.10;;;3.00;;
19741;SDS011;10028;48.822;11.854;2023-03-13T03:00:33;2.60;;;2.50;;
19741;SDS011;10028;48.822;11.854;2023-03-13T03:03:01;2.63;;;2.53;;
19741;SDS011;10028;48.822;11.854;2023-03-13T03:05:28;2.30;;;2.20;;
19741;SDS011;10028;48.822;11.854;2023-03-13T03:07:55;56.30;;;4.33;;
19741;SDS011;10028;48.822;11.854;2023-03-13T03:10:22;2.80;;;2.70;;
19741;SDS011;10028;48.822;11.854;2023-03-13T03:12:49;2.80;;;2.70;;
19741;SDS011;10028;48.822;11.854;2023-03-13T03:15:17;3.33;;;3.23;;
19741;SDS011;10028;48.822;11.854;2023-03-13T03:17:44;2.70;;;2.60;;
19741;SDS011;10028;48.822;11.854;2023-03-13T03:20:11;2.60;;;2.50;;
19741;SDS011;10028;48.822;11.854;2023-03-13T03:22:38;3.07;;;2.97;;
19741;SDS011;10028;48.822;11.854;2023-03-13T03:25:06;2.50;;;2.40;;
19741;SDS011;10028;48.822;11.854;2023-03-13T03:27:34;3.00;;;2.90;;
19741;SDS011;10028;48.822;11.854;2023-03-13T03:30:02;3.07;;;2.97;;
19741;SDS011;10028;48.822;11.854;2023-03-13T03:32:30;2.53;;;2.43;;
19741;SDS011;10028;48.822;11.854;2023-03-13T03:34:58;2.50;;;2.40;;
19741;SDS011;10028;48.822;11.854;2023-03-13T03:37:25;2.67;;;2.57;;
19741;SDS011;10028;48.822;11.854;2023-03-13T03:39:52;2.90;;;2.80;;
19741;SDS011;10028;48.822;11.854;2023-03-13T03:42:19;2.70;;;2.60;;
19741;SDS011;10028;48.822;11.854;2023-03-13T03:44:47;3.23;;;3.13;;
19741;SDS011;10028;48.822;11.854;2023-03-13T03:47:14;2.50;;;2.40;;
19741;SDS011;10028;48.822;11.854;2023-03-13T03:49:41;2.70;;;2.60;;
19741;SDS011;10028;48.822;11.854;2023-03-13T03:52:08;2.50;;;2.40;;
19741;SDS011;10028;48.822;11.854;2023-03-13T03:54:35;2.73;;;2.63;;
19741;SDS011;10028;48.822;11.854;2023-03-13T03:57:02;2.90;;;2.80;;
19741;SDS011;10028;48.822;11.854;2023-03-13T03:59:30;2.60;;;2.50;;
19741;SDS011;10028;48.822;11.854;2023-03-13T04:01:57;2.93;;;2.83;;
19741;SDS011;10028;48.822;11.854;2023-03-13T04:04:24;2.70;;;2.60;;
19741;SDS011;10028;48.822;11.854;2023-03-13T04:06:52;2.63;;;2.53;;
19741;SDS011;10028;48.822;11.854;2023-03-13T04:09:19;2.60;;;2.50;;
19741;SDS011;10028;48.822;11.854;2023-03-13T04:11:46;2.80;;;2.70;;
19741;SDS011;10028;48.822;11.854;2023-03-13T04:14:13;3.00;;;2.90;;
19741;SDS011;10028;48.822;11.854;2023-03-13T04:16:40;2.53;;;2.43;;
19741;SDS011;10028;48.822;11.854;2023-03-13T04:19:08;2.70;;;2.60;;
19741;SDS011;10028;48.822;11.854;2023-03-13T04:21:35;3.07;;;2.97;;
19741;SDS011;10028;48.822;11.854;2023-03-13T04:24:03;2.80;;;2.70;;
19741;SDS011;10028;48.822;11.854;2023-03-13T04:26:30;2.77;;;2.67;;
19741;SDS011;10028;48.822;11.854;2023-03-13T04:28:57;3.27;;;3.17;;
19741;SDS011;10028;48.822;11.854;2023-03-13T04:31:24;2.80;;;2.70;;
19741;SDS011;10028;48.822;11.854;2023-03-13T04:33:52;2.83;;;2.73;;
19741;SDS011;10028;48.822;11.854;2023-03-13T04:36:19;2.50;;;2.40;;
19741;SDS011;10028;48.822;11.854;2023-03-13T04:38:46;2.97;;;2.87;;
19741;SDS011;10028;48.822;11.854;2023-03-13T04:41:13;2.60;;;2.50;;
19741;SDS011;10028;48.822;11.854;2023-03-13T04:43:40;2.90;;;2.80;;
19741;SDS011;10028;48.822;11.854;2023-03-13T04:46:08;2.70;;;2.60;;
19741;SDS011;10028;48.822;11.854;2023-03-13T04:48:35;2.70;;;2.60;;
19741;SDS011;10028;48.822;11.854;2023-03-13T04:51:02;2.70;;;2.60;;
19741;SDS011;10028;48.822;11.854;2023-03-13T04:53:29;2.73;;;2.63;;
19741;SDS011;10028;48.822;11.854;2023-03-13T04:55:56;2.60;;;2.50;;
19741;SDS011;10028;48.822;11.854;2023-03-13T04:58:24;2.83;;;2.73;;
19741;SDS011;10028;48.822;11.854;2023-03-13T05:00:52;2.60;;;2.50;;
19741;SDS011;10028;48.822;11.854;2023-03-13T05:03:19;2.70;;;2.60;;
19741;SDS011;10028;48.822;11.854;2023-03-13T05:05:46;2.63;;;2.53;;
19741;SDS011;10028;48.822;11.854;2023-03-13T05:08:13;2.70;;;2.60;;
19741;SDS011;10028;48.822;11.854;2023-03-13T05:10:41;2.87;;;2.77;;
19741;SDS011;10028;48.822;11.854;2023-03-13T05:13:08;3.37;;;3.27;;
19741;SDS011;10028;48.822;11.854;2023-03-13T05:15:35;2.73;;;2.63;;
19741;SDS011;10028;48.822;11.854;2023-03-13T05:18:03;2.70;;;2.60;;
19741;SDS011;10028;48.822;11.854;2023-03-13T05:20:30;3.10;;;3.00;;
19741;SDS011;10028;48.822;11.854;2023-03-13T05:22:58;3.20;;;3.10;;
19741;SDS011;10028;48.822;11.854;2023-03-13T05:25:25;2.80;;;2.70;;
19741;SDS011;10028;48.822;11.854;2023-03-13T05:27:52;2.90;;;2.80;;
19741;SDS011;10028;48.822;11.854;2023-03-13T05:30:19;2.50;;;2.40;;
19741;SDS011;10028;48.822;11.854;2023-03-13T05:32:46;2.57;;;2.47;;
19741;SDS011;10028;48.822;11.854;2023-03-13T05:35:14;2.63;;;2.53;;
19741;SDS011;10028;48.822;11.854;2023-03-13T05:37:41;2.70;;;2.60;;
19741;SDS011;10028;48.822;11.854;2023-03-13T05:40:09;2.50;;;2.40;;
19741;SDS011;10028;48.822;11.854;2023-03-13T05:42:36;2.50;;;2.40;;
19741;SDS011;10028;48.822;11.854;2023-03-13T05:45:03;2.73;;;2.63;;
19741;SDS011;10028;48.822;11.854;2023-03-13T05:47:31;2.80;;;2.70;;
19741;SDS011;10028;48.822;11.854;2023-03-13T05:49:58;2.93;;;2.83;;
19741;SDS011;10028;48.822;11.854;2023-03-13T05:52:25;3.03;;;2.93;;
19741;SDS011;10028;48.822;11.854;2023-03-13T05:54:52;2.60;;;2.50;;
19741;SDS011;10028;48.822;11.854;2023-03-13T05:57:19;2.87;;;2.77;;
19741;SDS011;10028;48.822;11.854;2023-03-13T05:59:47;2.60;;;2.50;;
19741;SDS011;10028;48.822;11.854;2023-03-13T06:02:14;2.60;;;2.50;;
19741;SDS011;10028;48.822;11.854;2023-03-13T06:04:41;2.40;;;2.30;;
19741;SDS011;10028;48.822;11.854;2023-03-13T06:07:08;2.40;;;2.30;;
19741;SDS011;10028;48.822;11.854;2023-03-13T06:09:36;2.70;;;2.60;;
19741;SDS011;10028;48.822;11.854;2023-03-13T06:12:03;2.50;;;2.40;;
19741;SDS011;10028;48.822;11.854;2023-03-13T06:14:30;2.50;;;2.40;;
19741;SDS011;10028;48.822;11.854;2023-03-13T06:16:57;2.57;;;2.47;;
19741;SDS011;10028;48.822;11.854;2023-03-13T06:19:25;2.40;;;2.30;;
19741;SDS011;10028;48.822;11.854;2023-03-13T06:21:52;2.10;;;2.10;;
19741;SDS011;10028;48.822;11.854;2023-03-13T06:24:19;2.63;;;2.53;;
19741;SDS011;10028;48.822;11.854;2023-03-13T06:26:49;3.57;;;3.37;;
19741;SDS011;10028;48.822;11.854;2023-03-13T06:29:16;2.70;;;2.60;;
19741;SDS011;10028;48.822;11.854;2023-03-13T06:31:44;2.10;;;2.10;;
19741;SDS011;10028;48.822;11.854;2023-03-13T06:34:11;2.30;;;2.20;;
19741;SDS011;10028;48.822;11.854;2023-03-13T06:36:39;2.87;;;2.77;;
19741;SDS011;10028;48.822;11.854;2023-03-13T06:39:06;2.80;;;2.70;;
19741;SDS011;10028;48.822;11.854;2023-03-13T06:41:36;2.40;;;2.30;;
19741;SDS011;10028;48.822;11.854;2023-03-13T06:44:04;2.50;;;2.40;;
19741;SDS011;10028;48.822;11.854;2023-03-13T06:46:31;2.60;;;2.50;;
19741;SDS011;10028;48.822;11.854;2023-03-13T06:48:58;2.60;;;2.50;;
19741;SDS011;10028;48.822;11.854;2023-03-13T06:51:29;2.30;;;2.20;;
19741;SDS011;10028;48.822;11.854;2023-03-13T06:53:56;2.70;;;2.60;;
19741;SDS011;10028;48.822;11.854;2023-03-13T06:56:24;2.73;;;2.63;;
19741;SDS011;10028;48.822;11.854;2023-03-13T06:58:51;2.47;;;2.37;;
19741;SDS011;10028;48.822;11.854;2023-03-13T07:01:18;2.40;;;2.30;;
19741;SDS011;10028;48.822;11.854;2023-03-13T07:03:46;2.80;;;2.70;;
19741;SDS011;10028;48.822;11.854;2023-03-13T07:06:14;2.10;;;2.10;;
19741;SDS011;10028;48.822;11.854;2023-03-13T07:08:41;2.30;;;2.20;;
19741;SDS011;10028;48.822;11.854;2023-03-13T07:11:10;2.60;;;2.50;;
19741;SDS011;10028;48.822;11.854;2023-03-13T07:13:38;2.30;;;2.20;;
19741;SDS011;10028;48.822;11.854;2023-03-13T07:16:07;2.67;;;2.57;;
19741;SDS011;10028;48.822;11.854;2023-03-13T07:18:35;2.50;;;2.40;;
19741;SDS011;10028;48.822;11.854;2023-03-13T07:21:03;2.60;;;2.50;;
19741;SDS011;10028;48.822;11.854;2023-03-13T07:23:31;2.63;;;2.53;;
19741;SDS011;10028;48.822;11.854;2023-03-13T07:26:01;2.10;;;2.10;;
19741;SDS011;10028;48.822;11.854;2023-03-13T07:28:30;2.60;;;2.50;;
19741;SDS011;10028;48.822;11.854;2023-03-13T07:31:13;2.70;;;2.50;;
19741;SDS011;10028;48.822;11.854;2023-03-13T07:33:42;2.20;;;2.10;;
19741;SDS011;10028;48.822;11.854;2023-03-13T07:36:11;2.27;;;2.20;;
19741;SDS011;10028;48.822;11.854;2023-03-13T07:38:39;2.50;;;2.40;;
19741;SDS011;10028;48.822;11.854;2023-03-13T07:41:06;2.53;;;2.43;;
19741;SDS011;10028;48.822;11.854;2023-03-13T07:43:33;2.70;;;2.60;;
19741;SDS011;10028;48.822;11.854;2023-03-13T07:46:01;2.80;;;2.70;;
19741;SDS011;10028;48.822;11.854;2023-03-13T07:48:34;2.30;;;2.20;;
19741;SDS011;10028;48.822;11.854;2023-03-13T07:51:03;2.60;;;2.50;;
19741;SDS011;10028;48.822;11.854;2023-03-13T07:53:31;2.60;;;2.50;;
19741;SDS011;10028;48.822;11.854;2023-03-13T07:55:59;2.73;;;2.63;;
19741;SDS011;10028;48.822;11.854;2023-03-13T07:58:29;3.37;;;3.17;;
19741;SDS011;10028;48.822;11.854;2023-03-13T08:00:57;2.57;;;2.47;;
19741;SDS011;10028;48.822;11.854;2023-03-13T08:03:25;2.43;;;2.33;;
19741;SDS011;10028;48.822;11.854;2023-03-13T08:05:56;2.60;;;2.50;;
19741;SDS011;10028;48.822;11.854;2023-03-13T08:08:27;2.60;;;2.50;;
19741;SDS011;10028;48.822;11.854;2023-03-13T08:10:58;2.83;;;2.73;;
19741;SDS011;10028;48.822;11.854;2023-03-13T08:13:26;2.67;;;2.57;;
19741;SDS011;10028;48.822;11.854;2023-03-13T08:16:04;2.70;;;2.60;;
19741;SDS011;10028;48.822;11.854;2023-03-13T08:18:32;2.73;;;2.63;;
19741;SDS011;10028;48.822;11.854;2023-03-13T08:21:10;2.40;;;2.30;;
19741;SDS011;10028;48.822;11.854;2023-03-13T08:23:38;2.50;;;2.40;;
19741;SDS011;10028;48.822;11.854;2023-03-13T08:26:10;2.40;;;2.30;;
19741;SDS011;10028;48.822;11.854;2023-03-13T08:28:39;2.40;;;2.30;;
19741;SDS011;10028;48.822;11.854;2023-03-13T08:31:10;2.10;;;2.10;;
19741;SDS011;10028;48.822;11.854;2023-03-13T08:33:43;3.13;;;3.03;;
19741;SDS011;10028;48.822;11.854;2023-03-13T08:36:15;2.30;;;2.20;;
19741;SDS011;10028;48.822;11.854;2023-03-13T08:38:46;2.10;;;2.10;;
19741;SDS011;10028;48.822;11.854;2023-03-13T08:41:15;2.40;;;2.30;;
19741;SDS011;10028;48.822;11.854;2023-03-13T08:43:54;2.23;;;2.17;;
19741;SDS011;10028;48.822;11.854;2023-03-13T08:46:22;2.60;;;2.50;;
19741;SDS011;10028;48.822;11.854;2023-03-13T08:48:53;2.57;;;2.47;;
19741;SDS011;10028;48.822;11.854;2023-03-13T08:51:21;2.40;;;2.30;;
19741;SDS011;10028;48.822;11.854;2023-03-13T08:53:50;2.63;;;2.53;;
19741;SDS011;10028;48.822;11.854;2023-03-13T08:56:18;2.33;;;2.23;;
19741;SDS011;10028;48.822;11.854;2023-03-13T08:58:53;2.00;;;2.00;;
19741;SDS011;10028;48.822;11.854;2023-03-13T09:01:22;2.40;;;2.30;;
19741;SDS011;10028;48.822;11.854;2023-03-13T09:03:51;2.00;;;2.00;;
19741;SDS011;10028;48.822;11.854;2023-03-13T09:06:18;1.90;;;1.90;;
19741;SDS011;10028;48.822;11.854;2023-03-13T09:08:47;2.10;;;2.10;;
19741;SDS011;10028;48.822;11.854;2023-03-13T09:11:16;2.00;;;2.00;;
19741;SDS011;10028;48.822;11.854;2023-03-13T09:13:45;1.80;;;1.80;;
19741;SDS011;10028;48.822;11.854;2023-03-13T09:16:18;2.03;;;2.03;;
19741;SDS011;10028;48.822;11.854;2023-03-13T09:18:46;2.23;;;2.20;;
19741;SDS011;10028;48.822;11.854;2023-03-13T09:21:15;1.90;;;1.90;;
19741;SDS011;10028;48.822;11.854;2023-03-13T09:23:46;1.90;;;1.90;;
19741;SDS011;10028;48.822;11.854;2023-03-13T09:26:14;1.80;;;1.80;;
19741;SDS011;10028;48.822;11.854;2023-03-13T09:28:42;1.97;;;1.97;;
19741;SDS011;10028;48.822;11.854;2023-03-13T09:31:13;1.70;;;1.70;;
19741;SDS011;10028;48.822;11.854;2023-03-13T09:33:43;1.70;;;1.70;;
19741;SDS011;10028;48.822;11.854;2023-03-13T09:36:11;1.80;;;1.80;;
19741;SDS011;10028;48.822;11.854;2023-03-13T09:38:39;1.93;;;1.93;;
19741;SDS011;10028;48.822;11.854;2023-03-13T09:43:44;5.53;;;5.07;;
19741;SDS011;10028;48.822;11.854;2023-03-13T09:46:32;1.63;;;1.63;;
19741;SDS011;10028;48.822;11.854;2023-03-13T09:49:15;1.83;;;1.83;;
19741;SDS011;10028;48.822;11.854;2023-03-13T09:51:47;1.70;;;1.70;;
19741;SDS011;10028;48.822;11.854;2023-03-13T09:54:33;1.87;;;1.87;;
19741;SDS011;10028;48.822;11.854;2023-03-13T09:57:06;1.80;;;1.80;;
19741;SDS011;10028;48.822;11.854;2023-03-13T09:59:58;1.70;;;1.70;;
19741;SDS011;10028;48.822;11.854;2023-03-13T10:02:33;2.40;;;2.30;;
19741;SDS011;10028;48.822;11.854;2023-03-13T10:07:40;2.00;;;2.00;;
19741;SDS011;10028;48.822;11.854;2023-03-13T10:10:15;2.13;;;2.13;;
19741;SDS011;10028;48.822;11.854;2023-03-13T10:12:47;1.80;;;1.80;;
19741;SDS011;10028;48.822;11.854;2023-03-13T10:18:14;1.77;;;1.77;;
19741;SDS011;10028;48.822;11.854;2023-03-13T10:20:45;1.90;;;1.90;;
19741;SDS011;10028;48.822;11.854;2023-03-13T10:25:49;2.07;;;2.07;;
19741;SDS011;10028;48.822;11.854;2023-03-13T10:28:17;1.70;;;1.70;;
19741;SDS011;10028;48.822;11.854;2023-03-13T10:30:46;1.70;;;1.70;;
19741;SDS011;10028;48.822;11.854;2023-03-13T10:33:18;1.90;;;1.90;;
19741;SDS011;10028;48.822;11.854;2023-03-13T10:38:28;1.87;;;1.87;;
19741;SDS011;10028;48.822;11.854;2023-03-13T10:41:00;1.70;;;1.70;;
19741;SDS011;10028;48.822;11.854;2023-03-13T10:43:34;1.70;;;1.70;;
19741;SDS011;10028;48.822;11.854;2023-03-13T10:46:01;1.70;;;1.70;;
19741;SDS011;10028;48.822;11.854;2023-03-13T10:48:30;1.77;;;1.77;;
19741;SDS011;10028;48.822;11.854;2023-03-13T10:51:02;1.77;;;1.77;;
19741;SDS011;10028;48.822;11.854;2023-03-13T10:55:57;1.70;;;1.70;;
19741;SDS011;10028;48.822;11.854;2023-03-13T10:58:47;1.70;;;1.70;;
19741;SDS011;10028;48.822;11.854;2023-03-13T11:01:39;2.20;;;2.10;;
19741;SDS011;10028;48.822;11.854;2023-03-13T11:04:25;2.07;;;2.07;;
19741;SDS011;10028;48.822;11.854;2023-03-13T11:07:05;1.67;;;1.67;;
19741;SDS011;10028;48.822;11.854;2023-03-13T11:09:56;1.57;;;1.57;;
19741;SDS011;10028;48.822;11.854;2023-03-13T11:12:24;1.60;;;1.60;;
19741;SDS011;10028;48.822;11.854;2023-03-13T11:14:56;1.90;;;1.90;;
19741;SDS011;10028;48.822;11.854;2023-03-13T11:17:35;6.60;;;2.43;;
19741;SDS011;10028;48.822;11.854;2023-03-13T11:20:07;1.53;;;1.53;;
19741;SDS011;10028;48.822;11.854;2023-03-13T11:22:43;1.70;;;1.70;;
19741;SDS011;10028;48.822;11.854;2023-03-13T11:25:18;1.48;;;1.48;;
19741;SDS011;10028;48.822;11.854;2023-03-13T11:30:18;1.80;;;1.80;;
19741;SDS011;10028;48.822;11.854;2023-03-13T11:33:11;1.60;;;1.60;;
19741;SDS011;10028;48.822;11.854;2023-03-13T11:36:12;1.80;;;1.80;;
19741;SDS011;10028;48.822;11.854;2023-03-13T11:38:47;1.60;;;1.60;;
19741;SDS011;10028;48.822;11.854;2023-03-13T11:44:48;1.90;;;1.90;;
19741;SDS011;10028;48.822;11.854;2023-03-13T11:49:50;1.43;;;1.43;;
19741;SDS011;10028;48.822;11.854;2023-03-13T11:52:36;1.67;;;1.67;;
19741;SDS011;10028;48.822;11.854;2023-03-13T11:55:17;1.60;;;1.60;;
19741;SDS011;10028;48.822;11.854;2023-03-13T12:05:42;1.60;;;1.60;;
19741;SDS011;10028;48.822;11.854;2023-03-13T12:08:20;2.33;;;2.23;;
19741;SDS011;10028;48.822;11.854;2023-03-13T12:10:53;1.63;;;1.63;;
19741;SDS011;10028;48.822;11.854;2023-03-13T12:16:32;2.03;;;1.97;;
19741;SDS011;10028;48.822;11.854;2023-03-13T12:19:14;2.40;;;2.20;;
19741;SDS011;10028;48.822;11.854;2023-03-13T12:21:51;1.40;;;1.40;;
19741;SDS011;10028;48.822;11.854;2023-03-13T12:27:04;1.70;;;1.70;;
19741;SDS011;10028;48.822;11.854;2023-03-13T12:29:42;1.43;;;1.43;;
19741;SDS011;10028;48.822;11.854;2023-03-13T12:32:24;1.57;;;1.57;;
19741;SDS011;10028;48.822;11.854;2023-03-13T12:37:54;1.90;;;1.90;;
19741;SDS011;10028;48.822;11.854;2023-03-13T12:40:40;1.70;;;1.70;;
19741;SDS011;10028;48.822;11.854;2023-03-13T12:43:23;1.97;;;1.97;;
19741;SDS011;10028;48.822;11.854;2023-03-13T12:51:09;1.47;;;1.47;;
19741;SDS011;10028;48.822;11.854;2023-03-13T12:59:32;1.70;;;1.70;;
19741;SDS011;10028;48.822;11.854;2023-03-13T13:02:39;1.57;;;1.57;;
19741;SDS011;10028;48.822;11.854;2023-03-13T13:04:59;2.10;;;2.03;;
19741;SDS011;10028;48.822;11.854;2023-03-13T13:07:34;1.40;;;1.40;;
19741;SDS011;10028;48.822;11.854;2023-03-13T13:12:37;1.50;;;1.50;;
19741;SDS011;10028;48.822;11.854;2023-03-13T13:15:16;2.23;;;2.13;;
19741;SDS011;10028;48.822;11.854;2023-03-13T13:28:59;5.40;;;2.43;;
19741;SDS011;10028;48.822;11.854;2023-03-13T13:47:47;2.13;;;2.03;;
19741;SDS011;10028;48.822;11.854;2023-03-13T13:50:17;1.43;;;1.43;;
19741;SDS011;10028;48.822;11.854;2023-03-13T13:52:44;1.23;;;1.23;;
19741;SDS011;10028;48.822;11.854;2023-03-13T13:57:48;1.40;;;1.40;;
19741;SDS011;10028;48.822;11.854;2023-03-13T14:00:16;1.50;;;1.50;;
19741;SDS011;10028;48.822;11.854;2023-03-13T14:02:48;2.03;;;2.00;;
19741;SDS011;10028;48.822;11.854;2023-03-13T14:05:37;1.50;;;1.50;;
19741;SDS011;10028;48.822;11.854;2023-03-13T14:08:06;1.97;;;1.93;;
19741;SDS011;10028;48.822;11.854;2023-03-13T14:13:12;1.70;;;1.70;;
19741;SDS011;10028;48.822;11.854;2023-03-13T14:15:40;1.40;;;1.40;;
19741;SDS011;10028;48.822;11.854;2023-03-13T14:18:17;1.87;;;1.87;;
19741;SDS011;10028;48.822;11.854;2023-03-13T14:21:02;1.27;;;1.27;;
19741;SDS011;10028;48.822;11.854;2023-03-13T14:23:43;1.30;;;1.30;;
19741;SDS011;10028;48.822;11.854;2023-03-13T14:26:13;1.60;;;1.60;;
19741;SDS011;10028;48.822;11.854;2023-03-13T14:28:53;1.50;;;1.50;;
19741;SDS011;10028;48.822;11.854;2023-03-13T14:33:57;1.50;;;1.50;;
19741;SDS011;10028;48.822;11.854;2023-03-13T14:36:26;1.50;;;1.50;;
19741;SDS011;10028;48.822;11.854;2023-03-13T14:38:57;1.50;;;1.50;;
19741;SDS011;10028;48.822;11.854;2023-03-13T14:41:27;1.40;;;1.40;;
19741;SDS011;10028;48.822;11.854;2023-03-13T14:43:54;1.50;;;1.50;;
19741;SDS011;10028;48.822;11.854;2023-03-13T14:46:39;1.40;;;1.40;;
19741;SDS011;10028;48.822;11.854;2023-03-13T14:49:20;1.70;;;1.70;;
19741;SDS011;10028;48.822;11.854;2023-03-13T14:52:00;1.30;;;1.30;;
19741;SDS011;10028;48.822;11.854;2023-03-13T14:54:54;1.20;;;1.20;;
19741;SDS011;10028;48.822;11.854;2023-03-13T14:57:23;1.53;;;1.53;;
19741;SDS011;10028;48.822;11.854;2023-03-13T14:59:55;1.60;;;1.60;;
19741;SDS011;10028;48.822;11.854;2023-03-13T15:03:17;1.67;;;1.67;;
19741;SDS011;10028;48.822;11.854;2023-03-13T15:08:28;1.53;;;1.53;;
19741;SDS011;10028;48.822;11.854;2023-03-13T15:10:56;1.60;;;1.60;;
19741;SDS011;10028;48.822;11.854;2023-03-13T15:15:59;3.30;;;3.07;;
19741;SDS011;10028;48.822;11.854;2023-03-13T15:18:31;1.50;;;1.50;;
19741;SDS011;10028;48.822;11.854;2023-03-13T15:23:39;1.70;;;1.70;;
19741;SDS011;10028;48.822;11.854;2023-03-13T15:26:07;1.37;;;1.37;;
19741;SDS011;10028;48.822;11.854;2023-03-13T15:28:34;1.37;;;1.37;;
19741;SDS011;10028;48.822;11.854;2023-03-13T15:31:01;2.10;;;2.00;;
19741;SDS011;10028;48.822;11.854;2023-03-13T15:33:29;1.40;;;1.40;;
19741;SDS011;10028;48.822;11.854;2023-03-13T15:35:56;1.50;;;1.50;;
19741;SDS011;10028;48.822;11.854;2023-03-13T15:38:24;1.33;;;1.33;;
19741;SDS011;10028;48.822;11.854;2023-03-13T15:40:52;1.40;;;1.40;;
19741;SDS011;10028;48.822;11.854;2023-03-13T15:43:20;1.87;;;1.77;;
19741;SDS011;10028;48.822;11.854;2023-03-13T15:45:48;1.00;;;1.00;;
19741;SDS011;10028;48.822;11.854;2023-03-13T15:50:49;2.60;;;2.50;;
19741;SDS011;10028;48.822;11.854;2023-03-13T15:53:19;1.47;;;1.47;;
19741;SDS011;10028;48.822;11.854;2023-03-13T15:55:47;1.60;;;1.60;;
19741;SDS011;10028;48.822;11.854;2023-03-13T15:58:15;1.40;;;1.40;;
19741;SDS011;10028;48.822;11.854;2023-03-13T16:00:43;1.70;;;1.70;;
19741;SDS011;10028;48.822;11.854;2023-03-13T16:03:13;1.30;;;1.30;;
19741;SDS011;10028;48.822;11.854;2023-03-13T16:05:42;1.70;;;1.70;;
19741;SDS011;10028;48.822;11.854;2023-03-13T16:08:16;1.60;;;1.60;;
19741;SDS011;10028;48.822;11.854;2023-03-13T16:11:00;1.57;;;1.57;;
19741;SDS011;10028;48.822;11.854;2023-03-13T16:13:27;1.40;;;1.40;;
19741;SDS011;10028;48.822;11.854;2023-03-13T16:15:56;1.20;;;1.20;;
19741;SDS011;10028;48.822;11.854;2023-03-13T16:18:23;1.50;;;1.50;;
19741;SDS011;10028;48.822;11.854;2023-03-13T16:20:51;1.50;;;1.50;;
19741;SDS011;10028;48.822;11.854;2023-03-13T16:23:18;2.83;;;2.67;;
19741;SDS011;10028;48.822;11.854;2023-03-13T16:25:46;1.70;;;1.70;;
19741;SDS011;10028;48.822;11.854;2023-03-13T16:28:14;1.50;;;1.50;;
19741;SDS011;10028;48.822;11.854;2023-03-13T16:30:42;1.53;;;1.53;;
19741;SDS011;10028;48.822;11.854;2023-03-13T16:33:09;1.50;;;1.50;;
19741;SDS011;10028;48.822;11.854;2023-03-13T16:35:36;1.30;;;1.30;;
19741;SDS011;10028;48.822;11.854;2023-03-13T16:38:04;1.70;;;1.70;;
19741;SDS011;10028;48.822;11.854;2023-03-13T16:40:33;1.37;;;1.37;;
19741;SDS011;10028;48.822;11.854;2023-03-13T16:43:00;1.60;;;1.60;;
19741;SDS011;10028;48.822;11.854;2023-03-13T16:45:28;1.80;;;1.80;;
19741;SDS011;10028;48.822;11.854;2023-03-13T16:47:55;2.00;;;2.00;;